Time;durP1;ratioP1;P1;durP2;ratioP2;P2;SDS_P1;SDS_P2;PMS_P1;PMS_P2;Temp;Humidity;BMP_temperature;BMP_pressure;BME280_temperature;BME280_humidity;BME280_pressure;Samples;Min_cycle;Max_cycle;Signal;HPM_P1;HPM_P2
2021/12/24 00:01:40;;;;;;;4.00;3.27;;;;;;;;;;5094704;28;20501;-71
2021/12/24 00:04:09;;;;;;;4.87;3.33;;;;;;;;;;5095802;28;20400;-73
2021/12/24 00:06:35;;;;;;;4.90;3.63;;;;;;;;;;5095728;28;20404;-74
2021/12/24 00:09:01;;;;;;;3.70;3.00;;;;;;;;;;5094052;28;20993;-73
2021/12/24 00:11:27;;;;;;;3.67;3.30;;;;;;;;;;5094183;28;20437;-73
2021/12/24 00:13:54;;;;;;;6.23;4.00;;;;;;;;;;5095496;28;20404;-73
2021/12/24 00:16:26;;;;;;;4.27;3.30;;;;;;;;;;5095515;28;20411;-72
2021/12/24 00:20:04;;;;;;;4.63;3.53;;;;;;;;;;5095415;28;20871;-74
2021/12/24 00:35:31;;;;;;;5.03;3.20;;;;;;;;;;5095375;28;20430;-72
2021/12/24 00:38:03;;;;;;;4.60;3.70;;;;;;;;;;5095004;28;20392;-72
2021/12/24 00:40:30;;;;;;;3.63;3.00;;;;;;;;;;5094896;28;20428;-72
2021/12/24 00:42:56;;;;;;;5.17;3.27;;;;;;;;;;5094851;28;20898;-72
2021/12/24 00:45:24;;;;;;;4.80;3.90;;;;;;;;;;5094814;28;20776;-73
2021/12/24 00:47:50;;;;;;;3.30;2.93;;;;;;;;;;5094696;28;20532;-72
2021/12/24 00:50:20;;;;;;;4.27;3.23;;;;;;;;;;5094660;28;20439;-73
2021/12/24 00:52:49;;;;;;;4.10;3.50;;;;;;;;;;5094801;28;20396;-72
2021/12/24 00:55:19;;;;;;;5.50;3.70;;;;;;;;;;5094739;28;20882;-71
2021/12/24 00:57:47;;;;;;;4.10;3.70;;;;;;;;;;5094470;28;20451;-72
2021/12/24 01:00:40;;;;;;;4.77;3.60;;;;;;;;;;5094608;28;20404;-74
2021/12/24 01:03:07;;;;;;;5.33;3.60;;;;;;;;;;5091035;28;20415;-72
2021/12/24 01:05:34;;;;;;;4.83;3.20;;;;;;;;;;5093247;28;20404;-73
2021/12/24 01:08:00;;;;;;;4.17;3.67;;;;;;;;;;5094226;28;20909;-72
2021/12/24 01:10:37;;;;;;;7.20;3.70;;;;;;;;;;5094115;28;20443;-73
2021/12/24 01:13:04;;;;;;;4.50;3.73;;;;;;;;;;5094199;28;20403;-72
2021/12/24 01:15:32;;;;;;;4.57;3.10;;;;;;;;;;5094267;28;20460;-73
2021/12/24 01:18:10;;;;;;;3.37;3.07;;;;;;;;;;5094193;28;20454;-72
2021/12/24 01:23:28;;;;;;;4.80;4.20;;;;;;;;;;5094235;28;20408;-72
2021/12/24 01:25:56;;;;;;;5.60;4.03;;;;;;;;;;5094016;28;20404;-72
2021/12/24 01:28:41;;;;;;;4.73;4.10;;;;;;;;;;5092868;28;20825;-72
2021/12/24 01:44:34;;;;;;;3.40;3.10;;;;;;;;;;5093805;28;20402;-71
2021/12/24 01:47:02;;;;;;;3.20;2.90;;;;;;;;;;5093497;28;20400;-71
2021/12/24 01:49:28;;;;;;;5.63;3.30;;;;;;;;;;5093533;28;20467;-71
2021/12/24 01:51:54;;;;;;;4.30;3.30;;;;;;;;;;5093595;28;20408;-71
2021/12/24 01:54:20;;;;;;;3.80;2.67;;;;;;;;;;5093590;28;20498;-72
2021/12/24 01:56:47;;;;;;;7.13;2.73;;;;;;;;;;5093369;28;20411;-72
2021/12/24 01:59:13;;;;;;;4.57;3.13;;;;;;;;;;5093536;28;20411;-72
2021/12/24 02:01:40;;;;;;;3.67;3.00;;;;;;;;;;5093610;28;20402;-71
2021/12/24 02:04:06;;;;;;;4.33;2.70;;;;;;;;;;5093430;28;20408;-71
2021/12/24 02:06:32;;;;;;;4.83;3.10;;;;;;;;;;5093428;28;20395;-71
2021/12/24 02:08:58;;;;;;;4.33;3.57;;;;;;;;;;5093237;28;20546;-71
2021/12/24 02:11:25;;;;;;;4.30;3.00;;;;;;;;;;5093324;28;20455;-71
2021/12/24 02:13:52;;;;;;;5.67;3.03;;;;;;;;;;5093343;28;20407;-72
2021/12/24 02:17:32;;;;;;;6.40;3.47;;;;;;;;;;5092076;28;20503;-72
2021/12/24 02:30:19;;;;;;;5.53;3.60;;;;;;;;;;5093428;28;20403;-71
2021/12/24 02:32:46;;;;;;;3.33;3.00;;;;;;;;;;5093100;28;20396;-71
2021/12/24 02:35:12;;;;;;;4.53;3.07;;;;;;;;;;5093205;28;20415;-72
2021/12/24 02:37:38;;;;;;;4.03;3.00;;;;;;;;;;5091807;28;20416;-71
2021/12/24 02:40:05;;;;;;;4.37;3.27;;;;;;;;;;5092999;28;20426;-71
2021/12/24 02:42:34;;;;;;;3.40;3.07;;;;;;;;;;5093026;28;20484;-71
2021/12/24 02:45:00;;;;;;;3.97;2.93;;;;;;;;;;5093112;28;20403;-71
2021/12/24 02:47:54;;;;;;;2.97;2.50;;;;;;;;;;5091744;28;20415;-72
2021/12/24 02:55:31;;;;;;;2.80;2.60;;;;;;;;;;5093380;28;20403;-71
2021/12/24 02:57:58;;;;;;;3.97;3.30;;;;;;;;;;5092830;28;20443;-72
2021/12/24 03:00:26;;;;;;;4.07;3.00;;;;;;;;;;5092984;28;20523;-72
2021/12/24 03:02:53;;;;;;;2.50;2.30;;;;;;;;;;5092866;28;20898;-71
2021/12/24 03:05:20;;;;;;;4.23;2.97;;;;;;;;;;5092854;28;20942;-72
2021/12/24 03:07:47;;;;;;;2.93;2.67;;;;;;;;;;5091459;28;20454;-71
2021/12/24 03:10:15;;;;;;;3.17;2.40;;;;;;;;;;5092673;28;20474;-71
2021/12/24 03:12:44;;;;;;;6.80;3.00;;;;;;;;;;5093223;28;20761;-72
2021/12/24 03:15:10;;;;;;;3.70;2.70;;;;;;;;;;5091518;28;20758;-72
2021/12/24 03:17:36;;;;;;;2.90;2.60;;;;;;;;;;5091474;28;20921;-73
2021/12/24 03:20:08;;;;;;;3.80;3.10;;;;;;;;;;5091520;28;20422;-72
2021/12/24 03:22:52;;;;;;;3.10;2.77;;;;;;;;;;5092809;28;20800;-72
2021/12/24 03:25:18;;;;;;;2.40;2.20;;;;;;;;;;5092791;28;20470;-71
2021/12/24 03:27:44;;;;;;;2.70;2.50;;;;;;;;;;5092667;28;20464;-72
2021/12/24 03:30:11;;;;;;;5.50;2.80;;;;;;;;;;5091472;28;20524;-72
2021/12/24 03:32:37;;;;;;;3.30;2.57;;;;;;;;;;5092665;28;20412;-72
2021/12/24 03:35:03;;;;;;;4.27;3.00;;;;;;;;;;5091498;28;20412;-72
2021/12/24 03:37:30;;;;;;;4.07;2.70;;;;;;;;;;5095818;28;20411;-72
2021/12/24 03:39:56;;;;;;;2.77;2.57;;;;;;;;;;5096134;28;20418;-72
2021/12/24 03:42:23;;;;;;;3.40;3.10;;;;;;;;;;5096199;28;20415;-72
2021/12/24 03:44:59;;;;;;;4.30;3.00;;;;;;;;;;5096055;28;20506;-71
2021/12/24 03:47:26;;;;;;;3.27;2.97;;;;;;;;;;5095595;28;20490;-72
2021/12/24 03:50:02;;;;;;;3.60;2.90;;;;;;;;;;5096107;28;20403;-72
2021/12/24 03:55:13;;;;;;;4.23;2.73;;;;;;;;;;5096004;28;20438;-72
2021/12/24 03:57:40;;;;;;;2.97;2.67;;;;;;;;;;5094350;28;20476;-73
2021/12/24 04:00:09;;;;;;;4.83;2.93;;;;;;;;;;5094475;28;20412;-72
2021/12/24 04:02:35;;;;;;;2.77;2.50;;;;;;;;;;5095753;28;20400;-72
2021/12/24 04:05:01;;;;;;;3.67;3.00;;;;;;;;;;5095695;28;20398;-72
2021/12/24 04:07:27;;;;;;;4.60;2.60;;;;;;;;;;5095473;28;20452;-74
2021/12/24 04:10:06;;;;;;;3.07;2.60;;;;;;;;;;5095618;28;20515;-72
2021/12/24 04:12:34;;;;;;;4.43;2.80;;;;;;;;;;5095697;28;20404;-73
2021/12/24 04:15:00;;;;;;;3.60;3.30;;;;;;;;;;5094220;28;20902;-72
2021/12/24 04:17:26;;;;;;;2.90;2.70;;;;;;;;;;5094190;28;20407;-73
2021/12/24 04:25:21;;;;;;;2.90;2.60;;;;;;;;;;5095634;28;20419;-72
2021/12/24 04:27:49;;;;;;;2.83;2.20;;;;;;;;;;5095070;28;20455;-72
2021/12/24 04:30:21;;;;;;;2.77;2.40;;;;;;;;;;5095296;28;20750;-72
2021/12/24 04:32:57;;;;;;;2.80;2.60;;;;;;;;;;5095183;28;20439;-72
2021/12/24 05:02:10;;;;;;;3.40;3.00;;;;;;;;;;5094705;28;20434;-72
2021/12/24 05:04:37;;;;;;;2.50;2.30;;;;;;;;;;5094621;28;20404;-72
2021/12/24 05:07:25;;;;;;;3.10;2.80;;;;;;;;;;5094361;28;20895;-72
2021/12/24 05:09:51;;;;;;;3.43;2.23;;;;;;;;;;5094323;28;20835;-72
2021/12/24 05:12:17;;;;;;;3.17;2.73;;;;;;;;;;5094340;28;20400;-73
2021/12/24 05:14:43;;;;;;;3.17;2.70;;;;;;;;;;5094216;28;20407;-73
2021/12/24 05:17:33;;;;;;;2.70;2.37;;;;;;;;;;5094177;28;20820;-71
2021/12/24 05:22:43;;;;;;;2.83;2.50;;;;;;;;;;5094291;28;20407;-72
2021/12/24 05:25:10;;;;;;;3.90;2.90;;;;;;;;;;5094055;28;20874;-72
2021/12/24 05:27:36;;;;;;;3.03;2.73;;;;;;;;;;5092579;28;20404;-71
2021/12/24 05:30:03;;;;;;;3.50;2.80;;;;;;;;;;5094009;28;20419;-71
2021/12/24 05:32:29;;;;;;;3.50;3.00;;;;;;;;;;5093932;28;20404;-72
2021/12/24 05:34:55;;;;;;;3.83;2.77;;;;;;;;;;5093899;28;20414;-72
2021/12/24 05:37:21;;;;;;;2.77;2.57;;;;;;;;;;5093821;28;20399;-71
2021/12/24 05:39:47;;;;;;;2.90;2.40;;;;;;;;;;5093798;28;20914;-72
2021/12/24 05:42:13;;;;;;;3.10;2.80;;;;;;;;;;5092566;28;20464;-72
2021/12/24 05:44:39;;;;;;;3.70;2.90;;;;;;;;;;5093767;28;20408;-72
2021/12/24 05:47:05;;;;;;;2.83;2.43;;;;;;;;;;5093680;28;20448;-72
2021/12/24 05:49:34;;;;;;;3.47;3.07;;;;;;;;;;5092576;28;20550;-71
2021/12/24 05:52:00;;;;;;;4.77;2.70;;;;;;;;;;5092510;28;20438;-71
2021/12/24 05:54:26;;;;;;;3.93;2.77;;;;;;;;;;5092507;28;20427;-72
2021/12/24 05:56:52;;;;;;;4.33;3.40;;;;;;;;;;5093388;28;20407;-71
2021/12/24 05:59:18;;;;;;;3.40;3.10;;;;;;;;;;5092958;28;20465;-72
2021/12/24 06:01:44;;;;;;;3.43;2.77;;;;;;;;;;5093480;28;20412;-72
2021/12/24 06:04:10;;;;;;;3.33;3.03;;;;;;;;;;5092217;28;20423;-72
2021/12/24 06:06:36;;;;;;;5.20;3.13;;;;;;;;;;5092115;28;20451;-71
2021/12/24 06:09:03;;;;;;;3.20;2.90;;;;;;;;;;5093298;28;20495;-72
2021/12/24 06:11:29;;;;;;;3.20;2.53;;;;;;;;;;5093532;28;20404;-72
2021/12/24 06:13:56;;;;;;;3.40;3.10;;;;;;;;;;5093310;28;20494;-71
2021/12/24 06:16:22;;;;;;;8.77;3.07;;;;;;;;;;5093379;28;20426;-71
2021/12/24 06:18:48;;;;;;;7.33;3.20;;;;;;;;;;5092188;28;20441;-71
2021/12/24 06:21:14;;;;;;;3.53;3.10;;;;;;;;;;5093273;28;20404;-72
2021/12/24 06:23:41;;;;;;;3.17;2.87;;;;;;;;;;5092088;28;20506;-71
2021/12/24 06:26:08;;;;;;;6.53;3.27;;;;;;;;;;5093278;28;20400;-71
2021/12/24 06:28:34;;;;;;;3.57;3.23;;;;;;;;;;5091847;28;20839;-72
2021/12/24 06:31:01;;;;;;;5.93;3.73;;;;;;;;;;5093252;28;20501;-71
2021/12/24 06:33:27;;;;;;;4.80;3.23;;;;;;;;;;5093202;28;20423;-71
2021/12/24 06:35:55;;;;;;;4.93;3.30;;;;;;;;;;5093159;28;20419;-72
2021/12/24 06:38:21;;;;;;;3.40;3.03;;;;;;;;;;5093221;28;20404;-71
2021/12/24 06:40:48;;;;;;;6.33;3.30;;;;;;;;;;5091714;28;20522;-71
2021/12/24 06:43:14;;;;;;;3.53;3.10;;;;;;;;;;5093072;28;20439;-71
2021/12/24 06:45:40;;;;;;;4.50;3.40;;;;;;;;;;5091784;28;20418;-71
2021/12/24 06:48:06;;;;;;;3.60;3.07;;;;;;;;;;5092868;28;20471;-71
2021/12/24 06:50:33;;;;;;;5.00;3.13;;;;;;;;;;5091788;28;20437;-71
2021/12/24 06:52:59;;;;;;;4.53;2.53;;;;;;;;;;5092933;28;20406;-70
2021/12/24 06:55:26;;;;;;;5.07;3.67;;;;;;;;;;5092980;28;20408;-71
2021/12/24 06:57:52;;;;;;;4.43;3.20;;;;;;;;;;5092647;28;20543;-71
2021/12/24 07:00:20;;;;;;;3.00;2.80;;;;;;;;;;5091742;28;20434;-71
2021/12/24 07:02:46;;;;;;;6.00;3.47;;;;;;;;;;5092984;28;20399;-71
2021/12/24 07:05:12;;;;;;;3.83;2.70;;;;;;;;;;5092923;28;21008;-71
2021/12/24 07:07:38;;;;;;;4.07;3.27;;;;;;;;;;5092730;28;20415;-71
2021/12/24 07:10:05;;;;;;;5.70;3.17;;;;;;;;;;5093873;28;20431;-70
2021/12/24 07:12:31;;;;;;;4.00;2.90;;;;;;;;;;5095375;28;20892;-71
2021/12/24 07:14:57;;;;;;;3.03;2.70;;;;;;;;;;5095347;28;20428;-71
2021/12/24 07:17:23;;;;;;;3.20;2.87;;;;;;;;;;5096569;28;20422;-70
2021/12/24 07:19:49;;;;;;;5.80;3.50;;;;;;;;;;5096636;28;20452;-71
2021/12/24 07:22:18;;;;;;;3.27;2.97;;;;;;;;;;5096436;28;20404;-70
2021/12/24 07:24:44;;;;;;;2.90;2.60;;;;;;;;;;5095245;28;20403;-71
2021/12/24 07:27:10;;;;;;;4.47;3.10;;;;;;;;;;5096324;28;20470;-71
2021/12/24 07:29:36;;;;;;;4.07;3.00;;;;;;;;;;5095089;28;20514;-71
2021/12/24 07:32:03;;;;;;;3.67;3.27;;;;;;;;;;5096279;28;20770;-71
2021/12/24 07:34:29;;;;;;;3.60;3.30;;;;;;;;;;5096288;28;20499;-71
2021/12/24 07:36:55;;;;;;;4.40;3.03;;;;;;;;;;5096297;28;20947;-71
2021/12/24 07:39:22;;;;;;;7.70;3.03;;;;;;;;;;5094914;28;20419;-70
2021/12/24 07:41:48;;;;;;;3.93;3.17;;;;;;;;;;5094894;28;20466;-70
2021/12/24 07:44:16;;;;;;;4.33;3.47;;;;;;;;;;5096236;28;20404;-73
2021/12/24 07:46:48;;;;;;;4.57;3.80;;;;;;;;;;5095834;28;20588;-70
2021/12/24 07:49:29;;;;;;;3.83;3.43;;;;;;;;;;5095905;28;20979;-71
2021/12/24 07:52:08;;;;;;;4.67;3.73;;;;;;;;;;5096068;28;20422;-72
2021/12/24 07:54:35;;;;;;;4.73;3.70;;;;;;;;;;5095852;28;20411;-71
2021/12/24 07:57:01;;;;;;;4.40;3.30;;;;;;;;;;5095608;28;20396;-71
2021/12/24 07:59:29;;;;;;;4.13;3.60;;;;;;;;;;5094521;28;20412;-70
2021/12/24 08:01:55;;;;;;;5.27;3.07;;;;;;;;;;5095754;28;20469;-72
2021/12/24 08:04:21;;;;;;;7.03;3.77;;;;;;;;;;5095786;28;20442;-71
2021/12/24 08:06:47;;;;;;;4.50;3.40;;;;;;;;;;5095435;28;20404;-71
2021/12/24 08:09:13;;;;;;;3.63;3.17;;;;;;;;;;5095370;28;20471;-71
2021/12/24 08:11:39;;;;;;;4.00;3.27;;;;;;;;;;5095614;28;20407;-72
2021/12/24 08:14:06;;;;;;;3.87;2.93;;;;;;;;;;5094249;28;20517;-71
2021/12/24 08:16:33;;;;;;;4.07;2.90;;;;;;;;;;5095531;28;20883;-71
2021/12/24 08:19:00;;;;;;;3.53;2.97;;;;;;;;;;5094151;28;20404;-72
2021/12/24 08:21:26;;;;;;;3.70;3.40;;;;;;;;;;5093369;28;20406;-71
2021/12/24 08:23:53;;;;;;;6.90;4.03;;;;;;;;;;5095423;28;20414;-71
2021/12/24 08:26:21;;;;;;;5.73;3.40;;;;;;;;;;5093845;28;20443;-72
2021/12/24 08:28:47;;;;;;;5.13;3.70;;;;;;;;;;5095003;28;20463;-72
2021/12/24 08:31:14;;;;;;;5.43;3.23;;;;;;;;;;5095202;28;20903;-72
2021/12/24 08:33:40;;;;;;;5.17;3.23;;;;;;;;;;5093819;28;20813;-71
2021/12/24 08:36:06;;;;;;;4.27;3.37;;;;;;;;;;5093713;28;20864;-72
2021/12/24 08:38:33;;;;;;;4.40;3.40;;;;;;;;;;5094911;28;20404;-72
2021/12/24 08:40:59;;;;;;;3.50;3.20;;;;;;;;;;5094885;28;20459;-72
2021/12/24 08:43:25;;;;;;;4.07;2.93;;;;;;;;;;5095003;28;20892;-71
2021/12/24 08:45:51;;;;;;;3.90;3.10;;;;;;;;;;5094895;28;20396;-71
2021/12/24 08:48:18;;;;;;;3.43;3.03;;;;;;;;;;5094659;28;20516;-71
2021/12/24 08:50:44;;;;;;;5.43;3.37;;;;;;;;;;5094840;28;20886;-72
2021/12/24 08:53:10;;;;;;;3.43;3.13;;;;;;;;;;5094983;28;20545;-72
2021/12/24 08:55:36;;;;;;;4.93;3.03;;;;;;;;;;5094677;28;20392;-71
2021/12/24 08:58:03;;;;;;;4.80;3.80;;;;;;;;;;5094368;28;20492;-72
2021/12/24 09:00:30;;;;;;;3.93;3.07;;;;;;;;;;5094620;28;20486;-72
2021/12/24 09:02:56;;;;;;;6.60;3.13;;;;;;;;;;5093245;28;20774;-72
2021/12/24 09:05:23;;;;;;;4.13;3.17;;;;;;;;;;5093334;28;20412;-72
2021/12/24 09:07:49;;;;;;;4.07;3.47;;;;;;;;;;5094250;28;20465;-72
2021/12/24 09:10:15;;;;;;;2.87;2.67;;;;;;;;;;5094428;28;20451;-71
2021/12/24 09:12:43;;;;;;;4.77;3.20;;;;;;;;;;5093185;28;20415;-71
2021/12/24 09:15:10;;;;;;;3.83;3.17;;;;;;;;;;5094301;28;20812;-72
2021/12/24 09:17:36;;;;;;;6.83;3.53;;;;;;;;;;5094288;28;20416;-72
2021/12/24 09:20:02;;;;;;;3.30;3.00;;;;;;;;;;5094326;28;20407;-72
2021/12/24 09:22:32;;;;;;;3.30;3.00;;;;;;;;;;5094322;28;20407;-71
2021/12/24 09:24:58;;;;;;;3.40;3.10;;;;;;;;;;5094312;28;20404;-72
2021/12/24 09:27:24;;;;;;;4.20;3.43;;;;;;;;;;5093887;28;20964;-72
2021/12/24 09:29:51;;;;;;;3.30;3.00;;;;;;;;;;5092813;28;20498;-72
2021/12/24 09:32:17;;;;;;;5.90;3.10;;;;;;;;;;5093926;28;20921;-72
2021/12/24 09:34:43;;;;;;;4.07;2.60;;;;;;;;;;5093963;28;20408;-71
2021/12/24 09:37:09;;;;;;;4.67;3.30;;;;;;;;;;5093879;28;20407;-72
2021/12/24 09:39:35;;;;;;;3.50;3.20;;;;;;;;;;5093776;28;20459;-71
2021/12/24 09:42:02;;;;;;;4.03;2.70;;;;;;;;;;5093983;28;20413;-72
2021/12/24 09:44:28;;;;;;;3.60;3.30;;;;;;;;;;5093916;28;20412;-72
2021/12/24 09:46:54;;;;;;;3.80;3.50;;;;;;;;;;5093678;28;20928;-72
2021/12/24 09:49:21;;;;;;;3.73;3.40;;;;;;;;;;5093640;28;20463;-71
2021/12/24 09:51:50;;;;;;;4.67;3.33;;;;;;;;;;5093736;28;20457;-72
2021/12/24 09:54:25;;;;;;;5.40;3.63;;;;;;;;;;5093803;28;20408;-72
2021/12/24 09:56:52;;;;;;;3.33;3.07;;;;;;;;;;5093435;28;20404;-72
2021/12/24 09:59:18;;;;;;;4.40;4.00;;;;;;;;;;5092218;28;20549;-72
2021/12/24 10:01:51;;;;;;;4.10;3.40;;;;;;;;;;5092325;28;20427;-71
2021/12/24 10:04:18;;;;;;;4.73;2.93;;;;;;;;;;5093641;28;20388;-72
2021/12/24 10:07:05;;;;;;;4.50;3.90;;;;;;;;;;5093373;28;20919;-72
2021/12/24 10:09:34;;;;;;;3.40;3.00;;;;;;;;;;5093389;28;20802;-71
2021/12/24 10:12:01;;;;;;;3.40;3.10;;;;;;;;;;5093469;28;20746;-72
2021/12/24 10:14:32;;;;;;;3.50;2.90;;;;;;;;;;5093343;28;20878;-71
2021/12/24 10:16:58;;;;;;;4.30;3.17;;;;;;;;;;5093328;28;20485;-72
2021/12/24 10:19:24;;;;;;;3.73;3.17;;;;;;;;;;5093328;28;20395;-72
2021/12/24 10:21:57;;;;;;;6.37;3.33;;;;;;;;;;5092072;28;20420;-72
2021/12/24 10:24:26;;;;;;;3.47;3.17;;;;;;;;;;5093328;28;20400;-72
2021/12/24 10:26:53;;;;;;;5.00;3.50;;;;;;;;;;5091919;28;20436;-73
2021/12/24 10:29:33;;;;;;;3.87;3.30;;;;;;;;;;5093229;28;20954;-70
2021/12/24 10:32:07;;;;;;;4.13;3.23;;;;;;;;;;5093249;28;20457;-70
2021/12/24 10:34:35;;;;;;;4.10;3.70;;;;;;;;;;5091942;28;20430;-71
2021/12/24 10:37:06;;;;;;;3.90;3.27;;;;;;;;;;5093154;28;20396;-70
2021/12/24 10:39:34;;;;;;;3.57;2.70;;;;;;;;;;5093091;28;20420;-70
2021/12/24 10:42:01;;;;;;;3.67;3.20;;;;;;;;;;5093152;28;20407;-71
2021/12/24 10:44:29;;;;;;;6.83;3.30;;;;;;;;;;5092002;28;20502;-71
2021/12/24 10:46:59;;;;;;;3.87;3.57;;;;;;;;;;5096970;28;20419;-70
2021/12/24 10:49:49;;;;;;;3.40;3.10;;;;;;;;;;5097088;28;20580;-70
2021/12/24 10:54:54;;;;;;;6.20;3.00;;;;;;;;;;5097124;28;20498;-71
2021/12/24 10:57:23;;;;;;;10.03;3.13;;;;;;;;;;5096793;28;20505;-71
2021/12/24 10:59:53;;;;;;;4.03;3.30;;;;;;;;;;5097113;28;20419;-72
2021/12/24 11:02:20;;;;;;;4.70;3.37;;;;;;;;;;5095839;28;20476;-72
2021/12/24 11:04:46;;;;;;;3.30;2.47;;;;;;;;;;5095734;28;20408;-71
2021/12/24 11:07:30;;;;;;;3.70;2.63;;;;;;;;;;5096670;28;20445;-71
2021/12/24 11:10:09;;;;;;;3.50;2.80;;;;;;;;;;5096541;28;20474;-72
2021/12/24 11:12:40;;;;;;;3.37;2.90;;;;;;;;;;5096821;28;20404;-72
2021/12/24 11:15:17;;;;;;;4.30;3.27;;;;;;;;;;5096585;28;20412;-72
2021/12/24 11:17:43;;;;;;;2.50;2.30;;;;;;;;;;5096665;28;20395;-72
2021/12/24 11:20:10;;;;;;;6.37;3.17;;;;;;;;;;5096587;28;20472;-71
2021/12/24 11:22:53;;;;;;;4.70;3.10;;;;;;;;;;5096629;28;20399;-72
2021/12/24 11:25:20;;;;;;;4.10;2.97;;;;;;;;;;5095374;28;20427;-72
2021/12/24 11:27:46;;;;;;;3.37;2.63;;;;;;;;;;5096278;28;20391;-72
2021/12/24 11:30:12;;;;;;;3.37;2.60;;;;;;;;;;5096368;28;20784;-72
2021/12/24 11:32:39;;;;;;;2.73;2.50;;;;;;;;;;5095010;28;20407;-71
2021/12/24 11:35:05;;;;;;;6.20;2.83;;;;;;;;;;5096234;28;20422;-71
2021/12/24 11:37:31;;;;;;;2.50;2.30;;;;;;;;;;5096227;28;20408;-72
2021/12/24 11:39:59;;;;;;;2.50;2.07;;;;;;;;;;5096044;28;20440;-71
2021/12/24 11:42:25;;;;;;;2.83;2.17;;;;;;;;;;5096130;28;20890;-71
2021/12/24 11:44:51;;;;;;;3.10;2.90;;;;;;;;;;5096119;28;20890;-71
2021/12/24 11:47:17;;;;;;;2.07;1.90;;;;;;;;;;5095951;28;20415;-72
2021/12/24 11:49:44;;;;;;;2.40;2.20;;;;;;;;;;5095819;28;20565;-72
2021/12/24 11:52:10;;;;;;;3.20;2.57;;;;;;;;;;5094615;28;20438;-72
2021/12/24 11:54:36;;;;;;;6.30;2.60;;;;;;;;;;5095896;28;20975;-71
2021/12/24 11:57:02;;;;;;;2.63;1.77;;;;;;;;;;5094415;28;20479;-72
2021/12/24 11:59:38;;;;;;;2.30;2.10;;;;;;;;;;5095910;28;20464;-72
2021/12/24 12:02:05;;;;;;;4.80;2.00;;;;;;;;;;5094525;28;20796;-71
2021/12/24 12:04:32;;;;;;;2.37;1.90;;;;;;;;;;5095851;28;20495;-71
2021/12/24 12:07:17;;;;;;;2.70;2.20;;;;;;;;;;5095427;28;20407;-71
2021/12/24 12:09:45;;;;;;;3.63;2.40;;;;;;;;;;5095498;28;21035;-72
2021/12/24 12:12:14;;;;;;;2.13;2.00;;;;;;;;;;5095548;28;20439;-71
2021/12/24 12:14:41;;;;;;;2.60;2.10;;;;;;;;;;5094309;28;20423;-72
2021/12/24 12:17:08;;;;;;;1.97;1.50;;;;;;;;;;5095512;28;20437;-71
2021/12/24 12:19:45;;;;;;;1.60;1.50;;;;;;;;;;5095461;28;20411;-71
2021/12/24 12:22:14;;;;;;;2.13;1.93;;;;;;;;;;5095344;28;20954;-72
2021/12/24 12:27:19;;;;;;;1.50;1.40;;;;;;;;;;5095076;28;20893;-72
2021/12/24 12:29:46;;;;;;;1.57;1.47;;;;;;;;;;5093837;28;20478;-71
2021/12/24 12:32:18;;;;;;;1.80;1.70;;;;;;;;;;5095214;28;20406;-72
2021/12/24 12:34:44;;;;;;;2.07;1.57;;;;;;;;;;5093888;28;20420;-72
2021/12/24 12:37:25;;;;;;;1.47;1.37;;;;;;;;;;5095000;28;20391;-72
2021/12/24 12:39:53;;;;;;;1.30;1.27;;;;;;;;;;5094998;28;20431;-71
2021/12/24 12:42:19;;;;;;;2.27;1.60;;;;;;;;;;5093737;28;20419;-71
2021/12/24 12:44:53;;;;;;;1.50;1.40;;;;;;;;;;5094931;28;20972;-72
2021/12/24 12:47:19;;;;;;;1.50;1.40;;;;;;;;;;5093585;28;20952;-72
2021/12/24 12:49:46;;;;;;;2.00;1.77;;;;;;;;;;5094732;28;20499;-72
2021/12/24 12:52:40;;;;;;;1.57;1.47;;;;;;;;;;5094799;28;20822;-71
2021/12/24 12:55:07;;;;;;;1.50;1.40;;;;;;;;;;5092474;28;20756;-73
2021/12/24 12:57:37;;;;;;;2.03;1.43;;;;;;;;;;5094471;28;20872;-71
2021/12/24 13:00:10;;;;;;;1.50;1.30;;;;;;;;;;5094683;28;20958;-72
2021/12/24 13:02:55;;;;;;;3.10;1.20;;;;;;;;;;5093350;28;20423;-72
2021/12/24 13:05:21;;;;;;;2.40;1.50;;;;;;;;;;5093432;28;20402;-71
2021/12/24 13:07:48;;;;;;;1.83;1.30;;;;;;;;;;5092669;28;20392;-72
2021/12/24 13:10:16;;;;;;;2.00;1.80;;;;;;;;;;5094479;28;21011;-72
2021/12/24 13:12:42;;;;;;;1.20;1.10;;;;;;;;;;5093087;28;20805;-72
2021/12/24 13:15:15;;;;;;;1.43;1.33;;;;;;;;;;5094502;28;20418;-72
2021/12/24 13:17:45;;;;;;;1.40;1.30;;;;;;;;;;5094474;28;20403;-71
2021/12/24 13:20:31;;;;;;;1.70;1.60;;;;;;;;;;5094319;28;20495;-72
2021/12/24 13:22:57;;;;;;;1.47;1.37;;;;;;;;;;5094377;28;20399;-72
2021/12/24 13:25:24;;;;;;;1.73;1.40;;;;;;;;;;5094206;28;20402;-73
2021/12/24 13:27:52;;;;;;;1.23;1.20;;;;;;;;;;5094017;28;20404;-70
2021/12/24 13:30:29;;;;;;;1.50;1.30;;;;;;;;;;5092814;28;20419;-70
2021/12/24 13:33:04;;;;;;;1.40;1.30;;;;;;;;;;5094153;28;20408;-71
2021/12/24 13:35:31;;;;;;;1.70;1.37;;;;;;;;;;5093999;28;20416;-71
2021/12/24 13:37:58;;;;;;;1.67;1.50;;;;;;;;;;5093979;28;20404;-71
2021/12/24 13:40:25;;;;;;;2.93;1.30;;;;;;;;;;5093860;28;20424;-71
2021/12/24 13:42:53;;;;;;;2.60;1.70;;;;;;;;;;5093961;28;20439;-71
2021/12/24 13:45:20;;;;;;;1.20;1.10;;;;;;;;;;5093845;28;20403;-71
2021/12/24 13:47:56;;;;;;;1.30;1.20;;;;;;;;;;5093617;28;20906;-71
2021/12/24 13:54:30;;;;;;;1.30;1.20;;;;;;;;;;5093890;28;20418;-71
2021/12/24 13:55:55;;;;;;;1.53;1.30;;;;;;;;;;5093892;28;20415;-72
2021/12/24 13:58:22;;;;;;;1.20;1.20;;;;;;;;;;5093476;28;20448;-71
2021/12/24 14:00:49;;;;;;;1.50;1.33;;;;;;;;;;5093624;28;20886;-72
2021/12/24 14:03:16;;;;;;;1.40;1.30;;;;;;;;;;5093575;28;20430;-70
2021/12/24 14:05:49;;;;;;;1.40;1.30;;;;;;;;;;5093532;28;20439;-70
2021/12/24 14:08:16;;;;;;;1.40;1.30;;;;;;;;;;5092035;28;20506;-70
2021/12/24 14:10:43;;;;;;;1.60;1.50;;;;;;;;;;5093473;28;20420;-70
2021/12/24 14:13:11;;;;;;;1.37;1.27;;;;;;;;;;5093422;28;20840;-70
2021/12/24 14:15:57;;;;;;;1.50;1.40;;;;;;;;;;5093384;28;20414;-70
2021/12/24 14:18:32;;;;;;;1.70;1.50;;;;;;;;;;5093544;28;20403;-70
2021/12/24 14:21:44;;;;;;;1.87;1.47;;;;;;;;;;5092601;28;20954;-71
2021/12/24 14:23:46;;;;;;;1.57;1.47;;;;;;;;;;5093166;28;20766;-72
2021/12/24 14:26:12;;;;;;;1.57;1.33;;;;;;;;;;5093278;28;20465;-71
2021/12/24 14:28:49;;;;;;;1.53;1.43;;;;;;;;;;5093199;28;20520;-70
2021/12/24 14:31:15;;;;;;;3.40;1.70;;;;;;;;;;5091972;28;20415;-71
2021/12/24 14:33:46;;;;;;;1.37;1.23;;;;;;;;;;5093233;28;20441;-71
2021/12/24 14:36:17;;;;;;;2.10;1.40;;;;;;;;;;5091889;28;20760;-71
2021/12/24 14:38:43;;;;;;;1.50;1.40;;;;;;;;;;5093134;28;20450;-72
2021/12/24 14:41:15;;;;;;;1.50;1.40;;;;;;;;;;5093338;28;20403;-71
2021/12/24 14:43:41;;;;;;;2.30;1.43;;;;;;;;;;5091897;28;20410;-71
2021/12/24 14:46:07;;;;;;;1.30;1.20;;;;;;;;;;5092997;28;20850;-71
2021/12/24 14:48:35;;;;;;;2.90;1.47;;;;;;;;;;5091637;28;20532;-72
2021/12/24 14:51:04;;;;;;;1.80;1.20;;;;;;;;;;5091818;28;20416;-70
2021/12/24 14:53:33;;;;;;;1.77;1.10;;;;;;;;;;5093142;28;20471;-69
2021/12/24 14:55:59;;;;;;;1.27;1.17;;;;;;;;;;5092946;28;20951;-70
2021/12/24 14:58:28;;;;;;;1.67;1.53;;;;;;;;;;5092823;28;20459;-70
2021/12/24 15:00:55;;;;;;;1.47;1.37;;;;;;;;;;5093094;28;20414;-70
2021/12/24 15:03:21;;;;;;;1.57;1.00;;;;;;;;;;5092975;28;20403;-70
2021/12/24 15:05:49;;;;;;;1.80;1.50;;;;;;;;;;5092898;28;20453;-69
2021/12/24 15:08:19;;;;;;;2.10;1.50;;;;;;;;;;5092760;28;20451;-70
2021/12/24 15:11:04;;;;;;;1.30;1.20;;;;;;;;;;5091500;28;20446;-69
2021/12/24 15:13:31;;;;;;;1.70;1.60;;;;;;;;;;5091673;28;20477;-71
2021/12/24 15:15:58;;;;;;;1.77;1.47;;;;;;;;;;5092783;28;20747;-70
2021/12/24 15:18:24;;;;;;;1.63;1.37;;;;;;;;;;5092771;28;20400;-71
2021/12/24 15:20:50;;;;;;;1.73;1.53;;;;;;;;;;5091513;28;20983;-71
2021/12/24 15:23:17;;;;;;;1.67;1.57;;;;;;;;;;5092678;28;20461;-70
2021/12/24 15:25:43;;;;;;;1.60;1.50;;;;;;;;;;5092722;28;20407;-71
2021/12/24 15:28:11;;;;;;;1.83;1.50;;;;;;;;;;5091204;28;20852;-72
2021/12/24 15:30:38;;;;;;;1.80;1.70;;;;;;;;;;5091903;28;20960;-72
2021/12/24 15:33:05;;;;;;;1.93;1.30;;;;;;;;;;5096365;28;20451;-72
2021/12/24 15:35:32;;;;;;;1.37;1.27;;;;;;;;;;5096290;28;20906;-72
2021/12/24 15:37:58;;;;;;;1.33;1.10;;;;;;;;;;5096379;28;20808;-72
2021/12/24 15:40:24;;;;;;;1.50;1.30;;;;;;;;;;5094847;28;20948;-72
2021/12/24 15:42:51;;;;;;;1.70;1.60;;;;;;;;;;5096121;28;20438;-72
2021/12/24 15:45:17;;;;;;;1.90;1.63;;;;;;;;;;5096031;28;20436;-72
2021/12/24 15:47:43;;;;;;;1.60;1.50;;;;;;;;;;5096021;28;20415;-72
2021/12/24 15:50:09;;;;;;;1.73;1.63;;;;;;;;;;5095926;28;20475;-72
2021/12/24 15:52:35;;;;;;;1.67;1.57;;;;;;;;;;5094678;28;20404;-71
2021/12/24 15:55:01;;;;;;;1.87;1.77;;;;;;;;;;5095994;28;20412;-71
2021/12/24 15:57:27;;;;;;;2.60;1.93;;;;;;;;;;5095809;28;20443;-71
2021/12/24 15:59:53;;;;;;;2.47;2.27;;;;;;;;;;5094657;28;20424;-72
2021/12/24 16:02:20;;;;;;;1.93;1.57;;;;;;;;;;5095824;28;20431;-71
2021/12/24 16:04:46;;;;;;;2.23;2.03;;;;;;;;;;5094568;28;20419;-71
2021/12/24 16:07:12;;;;;;;3.27;1.90;;;;;;;;;;5094237;28;20953;-72
2021/12/24 16:09:38;;;;;;;2.40;2.17;;;;;;;;;;5095474;28;20479;-71
2021/12/24 16:12:04;;;;;;;2.10;1.80;;;;;;;;;;5095537;28;20906;-72
2021/12/24 16:14:30;;;;;;;2.00;1.70;;;;;;;;;;5095683;28;20431;-72
2021/12/24 16:16:56;;;;;;;2.30;2.10;;;;;;;;;;5094277;28;20419;-72
2021/12/24 16:19:23;;;;;;;2.83;2.33;;;;;;;;;;5094189;28;20495;-72
2021/12/24 16:21:50;;;;;;;3.73;1.93;;;;;;;;;;5095460;28;20402;-71
2021/12/24 16:24:16;;;;;;;2.03;1.80;;;;;;;;;;5095440;28;20392;-71